createdAt,value
2017-12-12T00:00:16.015Z,0.00
2017-12-12T00:01:15.989Z,0.00
2017-12-12T00:02:15.952Z,0.00
2017-12-12T00:03:15.913Z,0.00
2017-12-12T00:04:15.886Z,0.00
2017-12-12T00:05:15.863Z,0.00
2017-12-12T00:06:15.820Z,0.00
2017-12-12T00:07:15.790Z,0.00
2017-12-12T00:08:15.753Z,0.00
2017-12-12T00:09:15.719Z,0.00
2017-12-12T00:10:15.698Z,0.00
2017-12-12T00:11:15.657Z,0.00
2017-12-12T00:12:15.632Z,0.00
2017-12-12T00:13:15.596Z,0.00
2017-12-12T00:14:15.559Z,0.00
2017-12-12T00:15:15.528Z,0.00
2017-12-12T00:16:15.502Z,0.00
2017-12-12T00:17:15.465Z,0.00
2017-12-12T00:18:15.427Z,0.00
2017-12-12T00:19:15.400Z,0.00
2017-12-12T00:20:15.373Z,0.00
2017-12-12T00:21:15.334Z,0.00
2017-12-12T00:22:15.332Z,0.00
2017-12-12T00:23:15.281Z,0.00
2017-12-12T00:24:15.234Z,0.00
2017-12-12T00:25:15.201Z,0.00
2017-12-12T00:26:15.174Z,0.00
2017-12-12T00:27:15.144Z,0.00
2017-12-12T00:28:15.107Z,0.00
2017-12-12T00:29:15.072Z,0.00
2017-12-12T00:30:15.047Z,0.00
2017-12-12T00:31:15.004Z,0.00
2017-12-12T00:32:14.986Z,0.00
2017-12-12T00:33:14.952Z,0.00
2017-12-12T00:34:14.917Z,0.00
2017-12-12T00:35:14.881Z,0.00
2017-12-12T00:36:15.104Z,0.00
2017-12-12T00:37:14.829Z,0.00
2017-12-12T00:38:14.787Z,0.00
2017-12-12T00:39:14.753Z,0.00
2017-12-12T00:40:14.713Z,0.00
2017-12-12T00:41:14.691Z,0.00
2017-12-12T00:42:14.652Z,0.00
2017-12-12T00:43:14.626Z,0.00
2017-12-12T00:44:14.582Z,0.00
2017-12-12T00:45:14.549Z,0.00
2017-12-12T00:46:14.524Z,0.00
2017-12-12T00:47:14.494Z,0.00
2017-12-12T00:48:14.457Z,0.00
2017-12-12T00:49:14.426Z,0.00
2017-12-12T00:50:14.393Z,0.00
2017-12-12T00:51:14.355Z,0.00
2017-12-12T00:52:14.327Z,0.00
2017-12-12T00:53:14.292Z,0.00
2017-12-12T00:54:14.269Z,0.00
2017-12-12T00:55:14.227Z,0.00
2017-12-12T00:56:14.196Z,0.00
2017-12-12T00:57:14.161Z,0.00
2017-12-12T00:58:14.139Z,0.00
2017-12-12T00:59:14.096Z,0.00
2017-12-12T01:00:14.065Z,0.00
2017-12-12T01:01:14.041Z,0.00
2017-12-12T01:02:14.006Z,0.00
2017-12-12T01:03:13.972Z,0.00
2017-12-12T01:04:13.944Z,0.00
2017-12-12T01:05:13.902Z,0.00
2017-12-12T01:06:13.865Z,0.00
2017-12-12T01:07:13.838Z,0.00
2017-12-12T01:08:13.813Z,0.00
2017-12-12T01:09:13.781Z,0.00
2017-12-12T01:10:13.743Z,0.00
2017-12-12T01:11:13.710Z,0.00
2017-12-12T01:12:13.678Z,0.00
2017-12-12T01:13:13.648Z,0.00
2017-12-12T01:14:13.619Z,0.00
2017-12-12T01:15:13.582Z,0.00
2017-12-12T01:16:13.551Z,0.00
2017-12-12T01:17:13.519Z,0.00
2017-12-12T01:18:13.477Z,0.00
2017-12-12T01:19:13.445Z,0.00
2017-12-12T01:20:13.414Z,0.00
2017-12-12T01:21:13.392Z,0.00
2017-12-12T01:22:13.352Z,0.00
2017-12-12T01:23:13.326Z,0.00
2017-12-12T01:24:13.296Z,0.00
2017-12-12T01:25:13.268Z,0.00
2017-12-12T01:26:13.228Z,0.00
2017-12-12T01:27:13.196Z,0.00
2017-12-12T01:28:13.157Z,0.00
2017-12-12T01:29:13.123Z,0.00
2017-12-12T01:30:13.092Z,0.00
2017-12-12T01:31:13.052Z,0.00
2017-12-12T01:32:13.024Z,0.00
2017-12-12T01:33:12.996Z,0.00
2017-12-12T01:34:12.973Z,0.00
2017-12-12T01:35:12.930Z,0.00
2017-12-12T01:36:12.897Z,0.00
2017-12-12T01:37:12.869Z,0.00
2017-12-12T01:38:12.836Z,0.00
2017-12-12T01:39:12.806Z,0.00
2017-12-12T01:40:12.766Z,0.00
2017-12-12T01:41:12.741Z,0.00
2017-12-12T01:42:12.707Z,0.00
2017-12-12T01:43:12.675Z,0.00
2017-12-12T01:44:12.640Z,0.00
2017-12-12T01:45:12.613Z,0.00
2017-12-12T01:46:12.565Z,0.00
2017-12-12T01:47:12.535Z,0.00
2017-12-12T01:48:12.504Z,0.00
2017-12-12T01:49:12.472Z,0.00
2017-12-12T01:50:12.447Z,0.00
2017-12-12T01:51:12.410Z,0.00
2017-12-12T01:52:12.379Z,0.00
2017-12-12T01:53:12.350Z,0.00
2017-12-12T01:54:12.315Z,0.00
2017-12-12T01:55:12.280Z,0.00
2017-12-12T01:56:12.244Z,0.00
2017-12-12T01:57:12.216Z,0.00
2017-12-12T01:58:12.184Z,0.00
2017-12-12T01:59:12.145Z,0.00
2017-12-12T02:00:12.120Z,0.00
2017-12-12T02:01:12.092Z,0.00
2017-12-12T02:02:12.050Z,0.00
2017-12-12T02:03:12.021Z,0.00
2017-12-12T02:04:11.987Z,0.00
2017-12-12T02:05:11.955Z,0.00
2017-12-12T02:06:11.927Z,0.00
2017-12-12T02:07:11.898Z,0.00
2017-12-12T02:08:11.855Z,0.00
2017-12-12T02:09:11.828Z,0.00
2017-12-12T02:10:11.794Z,0.00
2017-12-12T02:11:11.771Z,0.00
2017-12-12T02:12:11.735Z,0.00
2017-12-12T02:13:11.700Z,0.00
2017-12-12T02:14:11.664Z,0.00
2017-12-12T02:15:11.631Z,0.00
2017-12-12T02:16:11.601Z,0.00
2017-12-12T02:17:11.571Z,0.00
2017-12-12T02:18:11.541Z,0.00
2017-12-12T02:19:11.510Z,0.00
2017-12-12T02:20:11.476Z,0.00
2017-12-12T02:21:11.440Z,0.00
2017-12-12T02:22:11.413Z,0.00
2017-12-12T02:23:11.625Z,0.00
2017-12-12T02:24:11.338Z,0.00
2017-12-12T02:25:11.307Z,0.00
2017-12-12T02:26:11.276Z,0.00
2017-12-12T02:27:11.255Z,0.00
2017-12-12T02:28:11.206Z,0.00
2017-12-12T02:29:11.179Z,0.00
2017-12-12T02:30:11.144Z,0.00
2017-12-12T02:31:11.117Z,0.00
2017-12-12T02:32:11.088Z,0.00
2017-12-12T02:33:11.059Z,0.00
2017-12-12T02:34:11.016Z,0.00
2017-12-12T02:35:10.997Z,0.00
2017-12-12T02:36:10.967Z,0.00
2017-12-12T02:37:11.041Z,0.00
2017-12-12T02:38:10.893Z,0.00
2017-12-12T02:39:10.858Z,0.00
2017-12-12T02:40:10.828Z,0.00
2017-12-12T02:41:10.791Z,0.00
2017-12-12T02:42:10.790Z,0.00
2017-12-12T02:43:10.733Z,0.00
2017-12-12T02:44:10.705Z,0.00
2017-12-12T02:45:10.662Z,0.00
2017-12-12T02:46:10.639Z,0.00
2017-12-12T02:47:10.854Z,0.00
2017-12-12T02:48:10.565Z,0.00
2017-12-12T02:49:10.540Z,0.00
2017-12-12T02:50:10.507Z,0.00
2017-12-12T02:51:10.465Z,0.00
2017-12-12T02:52:10.446Z,0.00
2017-12-12T02:53:10.412Z,0.00
2017-12-12T02:54:10.381Z,0.00
2017-12-12T02:55:10.341Z,0.00
2017-12-12T02:56:10.310Z,0.00
2017-12-12T02:57:10.334Z,0.00
2017-12-12T02:58:10.260Z,0.00
2017-12-12T02:59:10.218Z,0.00
2017-12-12T03:00:10.185Z,0.00
2017-12-12T03:01:10.146Z,0.00
2017-12-12T03:02:10.119Z,0.00
2017-12-12T03:03:10.086Z,0.00
2017-12-12T03:04:10.051Z,0.00
2017-12-12T03:05:10.025Z,0.00
2017-12-12T03:06:09.988Z,0.00
2017-12-12T03:07:09.947Z,0.00
2017-12-12T03:08:09.923Z,0.00
2017-12-12T03:09:09.891Z,0.00
2017-12-12T03:10:09.852Z,0.00
2017-12-12T03:11:09.826Z,0.00
2017-12-12T03:12:09.788Z,0.00
2017-12-12T03:13:09.758Z,0.00
2017-12-12T03:14:09.725Z,0.00
2017-12-12T03:15:09.695Z,0.00
2017-12-12T03:16:09.661Z,0.00
2017-12-12T03:17:09.622Z,0.00
2017-12-12T03:18:09.586Z,0.00
2017-12-12T03:19:09.569Z,0.00
2017-12-12T03:20:09.527Z,0.00
2017-12-12T03:21:09.501Z,0.00
2017-12-12T03:22:09.469Z,0.00
2017-12-12T03:23:09.437Z,0.00
2017-12-12T03:24:09.403Z,0.00
2017-12-12T03:25:09.363Z,0.00
2017-12-12T03:26:09.339Z,0.00
2017-12-12T03:27:09.311Z,0.00
2017-12-12T03:28:09.264Z,0.00
2017-12-12T03:29:09.229Z,0.00
2017-12-12T03:30:09.202Z,0.00
2017-12-12T03:31:09.170Z,0.00
2017-12-12T03:32:09.133Z,0.00
2017-12-12T03:33:09.104Z,0.00
2017-12-12T03:34:09.080Z,0.00
2017-12-12T03:35:09.040Z,0.00
2017-12-12T03:36:09.008Z,0.00
2017-12-12T03:37:08.972Z,0.00
2017-12-12T03:38:08.942Z,0.00
2017-12-12T03:39:08.910Z,0.00
2017-12-12T03:40:08.880Z,0.00
2017-12-12T03:41:08.838Z,0.00
2017-12-12T03:42:08.810Z,0.00
2017-12-12T03:43:08.774Z,0.00
2017-12-12T03:44:08.749Z,0.00
2017-12-12T03:45:08.722Z,0.00
2017-12-12T03:46:08.687Z,0.00
2017-12-12T03:47:08.947Z,0.00
2017-12-12T03:48:08.624Z,0.00
2017-12-12T03:49:08.585Z,0.00
2017-12-12T03:50:08.558Z,0.00
2017-12-12T03:51:08.521Z,0.00
2017-12-12T03:52:08.488Z,0.00
2017-12-12T03:53:08.454Z,0.00
2017-12-12T03:54:08.427Z,0.00
2017-12-12T03:55:08.386Z,0.00
2017-12-12T03:56:08.349Z,0.00
2017-12-12T03:57:08.324Z,0.00
2017-12-12T03:58:08.281Z,0.00
2017-12-12T03:59:08.255Z,0.00
2017-12-12T04:00:08.237Z,0.00
2017-12-12T04:01:08.196Z,0.00
2017-12-12T04:02:08.160Z,0.00
2017-12-12T04:03:08.132Z,0.00
2017-12-12T04:04:08.095Z,0.00
2017-12-12T04:05:08.065Z,0.00
2017-12-12T04:06:08.025Z,0.00
2017-12-12T04:07:08.003Z,0.00
2017-12-12T04:08:07.966Z,0.00
2017-12-12T04:09:07.924Z,0.00
2017-12-12T04:10:07.906Z,0.00
2017-12-12T04:11:07.862Z,0.00
2017-12-12T04:12:07.839Z,0.00
2017-12-12T04:13:07.798Z,0.00
2017-12-12T04:14:07.763Z,0.00
2017-12-12T04:15:07.737Z,0.00
2017-12-12T04:16:07.707Z,0.00
2017-12-12T04:17:07.673Z,0.00
2017-12-12T04:18:07.639Z,0.00
2017-12-12T04:19:07.607Z,0.00
2017-12-12T04:20:07.568Z,0.00
2017-12-12T04:21:07.534Z,0.00
2017-12-12T04:22:07.508Z,0.00
2017-12-12T04:23:07.729Z,0.00
2017-12-12T04:24:07.440Z,0.00
2017-12-12T04:25:07.400Z,0.00
2017-12-12T04:26:07.377Z,0.00
2017-12-12T04:27:07.340Z,0.00
2017-12-12T04:28:07.311Z,0.00
2017-12-12T04:29:07.278Z,0.00
2017-12-12T04:30:07.237Z,0.00
2017-12-12T04:31:07.214Z,0.00
2017-12-12T04:32:07.182Z,0.00
2017-12-12T04:33:07.150Z,0.00
2017-12-12T04:34:07.116Z,0.00
2017-12-12T04:35:07.078Z,0.00
2017-12-12T04:36:07.058Z,0.00
2017-12-12T04:37:07.017Z,0.00
2017-12-12T04:38:06.993Z,0.00
2017-12-12T04:39:06.951Z,0.00
2017-12-12T04:40:06.910Z,0.00
2017-12-12T04:41:06.889Z,0.00
2017-12-12T04:42:06.860Z,0.00
2017-12-12T04:43:06.819Z,0.00
2017-12-12T04:44:06.780Z,0.00
2017-12-12T04:45:06.758Z,0.00
2017-12-12T04:46:06.722Z,0.00
2017-12-12T04:47:06.686Z,0.00
2017-12-12T04:48:06.660Z,0.00
2017-12-12T04:49:06.620Z,0.00
2017-12-12T04:50:06.589Z,0.00
2017-12-12T04:51:06.552Z,0.00
2017-12-12T04:52:06.523Z,0.00
2017-12-12T04:53:06.504Z,0.00
2017-12-12T04:54:06.465Z,0.00
2017-12-12T04:55:06.436Z,0.00
2017-12-12T04:56:06.402Z,0.00
2017-12-12T04:57:06.368Z,0.00
2017-12-12T04:58:06.327Z,0.00
2017-12-12T04:59:06.319Z,0.00
2017-12-12T05:00:06.265Z,0.00
2017-12-12T05:01:06.226Z,0.00
2017-12-12T05:02:06.202Z,0.00
2017-12-12T05:03:06.175Z,0.00
2017-12-12T05:04:06.133Z,0.00
2017-12-12T05:05:06.110Z,0.00
2017-12-12T05:06:06.074Z,0.00
2017-12-12T05:07:06.033Z,0.00
2017-12-12T05:08:06.011Z,0.00
2017-12-12T05:09:05.973Z,0.00
2017-12-12T05:10:05.937Z,0.00
2017-12-12T05:11:05.902Z,0.00
2017-12-12T05:12:05.878Z,0.00
2017-12-12T05:13:05.841Z,0.00
2017-12-12T05:14:05.817Z,0.00
2017-12-12T05:15:05.782Z,0.00
2017-12-12T05:16:05.745Z,0.00
2017-12-12T05:17:05.716Z,0.00
2017-12-12T05:18:05.684Z,0.00
2017-12-12T05:19:05.645Z,0.00
2017-12-12T05:20:05.610Z,0.00
2017-12-12T05:21:05.579Z,0.00
2017-12-12T05:22:05.543Z,0.00
2017-12-12T05:23:05.512Z,0.00
2017-12-12T05:24:05.488Z,0.00
2017-12-12T05:25:05.458Z,0.00
2017-12-12T05:26:05.416Z,0.00
2017-12-12T05:27:05.383Z,0.00
2017-12-12T05:28:05.344Z,0.00
2017-12-12T05:29:05.572Z,0.00
2017-12-12T05:30:05.284Z,0.00
2017-12-12T05:31:05.263Z,0.00
2017-12-12T05:32:05.214Z,0.00
2017-12-12T05:33:05.187Z,0.00
2017-12-12T05:34:05.166Z,0.00
2017-12-12T05:35:05.173Z,0.00
2017-12-12T05:36:05.088Z,0.00
2017-12-12T05:37:05.069Z,0.00
2017-12-12T05:38:05.020Z,0.00
2017-12-12T05:39:04.993Z,0.00
2017-12-12T05:40:04.958Z,0.00
2017-12-12T05:41:04.925Z,0.00
2017-12-12T05:42:04.899Z,0.00
2017-12-12T05:43:04.867Z,0.00
2017-12-12T05:44:04.824Z,0.00
2017-12-12T05:45:04.796Z,0.00
2017-12-12T05:46:04.770Z,0.00
2017-12-12T05:47:04.727Z,0.00
2017-12-12T05:48:04.705Z,0.00
2017-12-12T05:49:04.667Z,0.00
2017-12-12T05:50:04.639Z,0.00
2017-12-12T05:51:04.605Z,0.00
2017-12-12T05:52:04.566Z,0.00
2017-12-12T05:53:04.789Z,0.00
2017-12-12T05:54:04.511Z,0.00
2017-12-12T05:55:04.474Z,0.00
2017-12-12T05:56:04.434Z,0.00
2017-12-12T05:57:04.406Z,0.00
2017-12-12T05:58:04.380Z,0.00
2017-12-12T05:59:04.340Z,0.00
2017-12-12T06:00:04.310Z,0.00
2017-12-12T06:01:04.280Z,0.00
2017-12-12T06:02:04.243Z,0.00
2017-12-12T06:03:04.210Z,0.00
2017-12-12T06:04:04.182Z,0.00
2017-12-12T06:05:04.161Z,0.00
2017-12-12T06:06:04.125Z,0.00
2017-12-12T06:07:04.080Z,0.00
2017-12-12T06:08:04.050Z,0.00
2017-12-12T06:09:04.014Z,0.00
2017-12-12T06:10:03.984Z,0.00
2017-12-12T06:11:04.401Z,0.00
2017-12-12T06:12:03.919Z,0.00
2017-12-12T06:13:03.887Z,0.00
2017-12-12T06:14:03.852Z,0.00
2017-12-12T06:15:03.813Z,0.00
2017-12-12T06:16:03.793Z,0.00
2017-12-12T06:17:03.755Z,0.00
2017-12-12T06:18:03.730Z,0.00
2017-12-12T06:19:03.694Z,0.00
2017-12-12T06:20:03.653Z,0.00
2017-12-12T06:21:03.627Z,0.00
2017-12-12T06:22:03.599Z,0.00
2017-12-12T06:23:03.556Z,0.00
2017-12-12T06:24:03.527Z,0.00
2017-12-12T06:25:03.489Z,0.00
2017-12-12T06:26:03.466Z,0.00
2017-12-12T06:27:03.428Z,0.00
2017-12-12T06:28:03.390Z,0.00
2017-12-12T06:29:03.364Z,0.00
2017-12-12T06:30:03.339Z,0.00
2017-12-12T06:31:03.300Z,0.00
2017-12-12T06:32:03.272Z,0.00
2017-12-12T06:33:03.243Z,0.00
2017-12-12T06:34:03.210Z,0.00
2017-12-12T06:35:03.177Z,0.00
2017-12-12T06:36:03.157Z,0.00
2017-12-12T06:37:03.108Z,0.00
2017-12-12T06:38:03.069Z,0.00
2017-12-12T06:39:03.038Z,0.00
2017-12-12T06:40:03.008Z,0.00
2017-12-12T06:41:02.975Z,0.00
2017-12-12T06:42:02.954Z,0.00
2017-12-12T06:43:02.917Z,0.00
2017-12-12T06:44:02.878Z,0.00
2017-12-12T06:45:02.852Z,0.00
2017-12-12T06:46:02.813Z,0.00
2017-12-12T06:47:02.777Z,0.00
2017-12-12T06:48:02.762Z,0.00
2017-12-12T06:49:02.717Z,0.00
2017-12-12T06:50:02.688Z,0.00
2017-12-12T06:51:02.655Z,0.00
2017-12-12T06:52:02.624Z,4.00
2017-12-12T06:53:02.585Z,4.00
2017-12-12T06:54:02.562Z,4.00
2017-12-12T06:55:02.519Z,4.00
2017-12-12T06:56:02.491Z,4.00
2017-12-12T06:57:02.451Z,4.00
2017-12-12T06:58:02.421Z,4.00
2017-12-12T06:59:02.399Z,4.00
2017-12-12T07:00:02.374Z,4.00
2017-12-12T07:01:02.331Z,4.00
2017-12-12T07:02:02.288Z,4.00
2017-12-12T07:03:02.259Z,4.00
2017-12-12T07:04:02.245Z,8.00
2017-12-12T07:05:02.205Z,8.00
2017-12-12T07:06:02.195Z,8.00
2017-12-12T07:07:02.132Z,12.00
2017-12-12T07:08:02.097Z,12.00
2017-12-12T07:09:02.076Z,12.00
2017-12-12T07:10:02.042Z,12.00
2017-12-12T07:11:02.013Z,12.00
2017-12-12T07:12:01.963Z,16.00
2017-12-12T07:13:01.942Z,16.00
2017-12-12T07:14:01.912Z,20.00
2017-12-12T07:15:01.876Z,20.00
2017-12-12T07:16:01.833Z,20.00
2017-12-12T07:17:01.813Z,24.00
2017-12-12T07:18:01.782Z,24.00
2017-12-12T07:19:01.741Z,32.00
2017-12-12T07:20:01.709Z,28.00
2017-12-12T07:21:01.679Z,32.00
2017-12-12T07:22:01.656Z,32.00
2017-12-12T07:23:01.614Z,40.00
2017-12-12T07:24:01.585Z,40.00
2017-12-12T07:25:01.550Z,44.00
2017-12-12T07:26:01.523Z,56.00
2017-12-12T07:27:01.487Z,60.00
2017-12-12T07:28:01.452Z,64.00
2017-12-12T07:29:01.414Z,76.00
2017-12-12T07:30:01.395Z,80.00
2017-12-12T07:31:01.374Z,88.00
2017-12-12T07:32:01.316Z,104.00
2017-12-12T07:33:01.284Z,112.00
2017-12-12T07:34:01.262Z,116.00
2017-12-12T07:35:01.234Z,132.00
2017-12-12T07:36:01.205Z,156.00
2017-12-12T07:37:01.172Z,148.00
2017-12-12T07:38:01.124Z,176.00
2017-12-12T07:39:01.097Z,200.00
2017-12-12T07:40:01.086Z,208.00
2017-12-12T07:41:01.033Z,208.00
2017-12-12T07:42:01.006Z,236.00
2017-12-12T07:43:00.965Z,256.00
2017-12-12T07:44:00.933Z,272.00
2017-12-12T07:45:00.902Z,280.00
2017-12-12T07:46:00.869Z,288.00
2017-12-12T07:47:00.852Z,292.00
2017-12-12T07:48:00.805Z,288.00
2017-12-12T07:49:00.775Z,296.00
2017-12-12T07:50:00.746Z,316.00
2017-12-12T07:51:00.717Z,280.00
2017-12-12T07:52:00.680Z,276.00
2017-12-12T07:53:00.648Z,288.00
2017-12-12T07:54:00.611Z,288.00
2017-12-12T07:55:00.582Z,308.00
2017-12-12T07:56:00.548Z,320.00
2017-12-12T07:57:00.510Z,376.00
2017-12-12T07:58:00.475Z,392.00
2017-12-12T07:59:00.450Z,376.00
2017-12-12T08:00:00.417Z,396.00
2017-12-12T08:01:00.382Z,372.00
2017-12-12T08:02:00.350Z,420.00
2017-12-12T08:03:00.325Z,452.00
2017-12-12T08:04:00.299Z,436.00
2017-12-12T08:05:00.265Z,460.00
2017-12-12T08:06:00.228Z,576.00
2017-12-12T08:07:00.196Z,548.00
2017-12-12T08:08:00.152Z,544.00
2017-12-12T08:09:00.128Z,588.00
2017-12-12T08:10:00.099Z,700.00
2017-12-12T08:11:00.065Z,752.00
2017-12-12T08:12:00.026Z,812.00
2017-12-12T08:13:00.010Z,940.00
2017-12-12T08:13:59.961Z,1124.00
2017-12-12T08:14:59.934Z,1180.00
2017-12-12T08:15:59.900Z,1252.00
2017-12-12T08:16:59.877Z,1152.00
2017-12-12T08:17:59.836Z,1360.00
2017-12-12T08:18:59.800Z,1164.00
2017-12-12T08:19:59.783Z,1216.00
2017-12-12T08:20:59.747Z,1108.00
2017-12-12T08:21:59.712Z,1292.00
2017-12-12T08:22:59.706Z,1460.00
2017-12-12T08:23:59.645Z,1452.00
2017-12-12T08:24:59.611Z,1388.00
2017-12-12T08:25:59.578Z,1536.00
2017-12-12T08:26:59.546Z,1536.00
2017-12-12T08:27:59.507Z,1664.00
2017-12-12T08:28:59.479Z,1536.00
2017-12-12T08:29:59.447Z,1592.00
2017-12-12T08:30:59.426Z,1536.00
2017-12-12T08:31:59.387Z,1544.00
2017-12-12T08:32:59.352Z,1496.00
2017-12-12T08:33:59.318Z,1620.00
2017-12-12T08:34:59.283Z,1800.00
2017-12-12T08:35:59.275Z,1800.00
2017-12-12T08:36:59.227Z,1808.00
2017-12-12T08:37:59.408Z,1776.00
2017-12-12T08:38:59.161Z,1796.00
2017-12-12T08:39:59.126Z,1776.00
2017-12-12T08:40:59.117Z,1796.00
2017-12-12T08:41:59.066Z,1768.00
2017-12-12T08:42:59.036Z,1872.00
2017-12-12T08:43:59.005Z,1876.00
2017-12-12T08:44:58.969Z,1964.00
2017-12-12T08:45:58.941Z,2032.00
2017-12-12T08:46:58.905Z,1968.00
2017-12-12T08:47:58.881Z,1904.00
2017-12-12T08:48:58.839Z,1860.00
2017-12-12T08:49:58.815Z,1832.00
2017-12-12T08:50:58.786Z,1912.00
2017-12-12T08:51:58.751Z,1936.00
2017-12-12T08:52:58.725Z,1792.00
2017-12-12T08:53:58.688Z,1816.00
2017-12-12T08:54:58.656Z,1760.00
2017-12-12T08:55:58.620Z,1948.00
2017-12-12T08:56:58.589Z,2020.00
2017-12-12T08:57:58.802Z,2068.00
2017-12-12T08:58:58.527Z,2244.00
2017-12-12T08:59:58.490Z,1944.00
2017-12-12T09:00:58.452Z,2112.00
2017-12-12T09:01:58.423Z,2452.00
2017-12-12T09:02:58.395Z,2144.00
2017-12-12T09:03:58.363Z,2076.00
2017-12-12T09:04:58.333Z,1928.00
2017-12-12T09:05:58.295Z,1828.00
2017-12-12T09:06:58.266Z,1772.00
2017-12-12T09:07:58.238Z,1856.00
2017-12-12T09:08:58.200Z,1532.00
2017-12-12T09:09:58.178Z,1512.00
2017-12-12T09:10:58.141Z,1660.00
2017-12-12T09:11:58.100Z,1564.00
2017-12-12T09:12:58.079Z,1568.00
2017-12-12T09:13:58.040Z,1676.00
2017-12-12T09:14:58.012Z,1744.00
2017-12-12T09:15:57.977Z,1688.00
2017-12-12T09:16:57.941Z,1780.00
2017-12-12T09:17:57.921Z,1784.00
2017-12-12T09:18:57.923Z,1640.00
2017-12-12T09:19:57.853Z,1704.00
2017-12-12T09:20:57.821Z,1760.00
2017-12-12T09:21:57.785Z,1728.00
2017-12-12T09:22:57.754Z,1892.00
2017-12-12T09:23:57.732Z,2312.00
2017-12-12T09:24:57.695Z,2388.00
2017-12-12T09:25:57.666Z,2268.00
2017-12-12T09:26:57.634Z,2588.00
2017-12-12T09:27:57.594Z,2664.00
2017-12-12T09:28:57.556Z,2824.00
2017-12-12T09:29:57.550Z,2744.00
2017-12-12T09:30:57.504Z,2572.00
2017-12-12T09:31:57.473Z,2364.00
2017-12-12T09:32:57.443Z,2536.00
2017-12-12T09:33:57.405Z,2848.00
2017-12-12T09:34:57.378Z,2476.00
2017-12-12T09:35:57.343Z,2528.00
2017-12-12T09:36:57.313Z,2452.00
2017-12-12T09:37:57.278Z,2504.00
2017-12-12T09:38:57.247Z,2300.00
2017-12-12T09:39:57.209Z,1940.00
2017-12-12T09:40:57.184Z,2040.00
2017-12-12T09:41:57.158Z,2080.00
2017-12-12T09:42:57.115Z,1940.00
2017-12-12T09:43:57.078Z,1868.00
2017-12-12T09:44:57.084Z,1888.00
2017-12-12T09:45:57.024Z,1868.00
2017-12-12T09:46:57.028Z,1968.00
2017-12-12T09:47:56.959Z,2108.00
2017-12-12T09:48:56.924Z,2076.00
2017-12-12T09:49:56.895Z,1964.00
2017-12-12T09:50:56.859Z,1864.00
2017-12-12T09:51:56.831Z,1804.00
2017-12-12T09:52:56.798Z,1828.00
2017-12-12T09:53:56.765Z,1896.00
2017-12-12T09:54:56.732Z,1920.00
2017-12-12T09:55:56.702Z,1896.00
2017-12-12T09:56:56.674Z,2004.00
2017-12-12T09:57:56.641Z,2080.00
2017-12-12T09:58:56.614Z,2160.00
2017-12-12T09:59:56.571Z,2528.00
2017-12-12T10:00:56.541Z,2836.00
2017-12-12T10:01:56.521Z,2652.00
2017-12-12T10:02:56.483Z,2264.00
2017-12-12T10:03:56.439Z,2184.00
2017-12-12T10:04:56.411Z,2032.00
2017-12-12T10:05:56.372Z,1884.00
2017-12-12T10:06:56.344Z,1692.00
2017-12-12T10:07:56.322Z,1704.00
2017-12-12T10:08:56.287Z,1784.00
2017-12-12T10:09:56.244Z,1860.00
2017-12-12T10:10:56.226Z,1776.00
2017-12-12T10:11:56.192Z,1684.00
2017-12-12T10:12:56.163Z,1688.00
2017-12-12T10:13:56.127Z,1756.00
2017-12-12T10:14:56.092Z,1828.00
2017-12-12T10:15:56.058Z,1856.00
2017-12-12T10:16:56.024Z,1728.00
2017-12-12T10:17:56.000Z,1892.00
2017-12-12T10:18:55.968Z,1996.00
2017-12-12T10:19:55.930Z,2168.00
2017-12-12T10:20:55.893Z,2396.00
2017-12-12T10:21:55.856Z,2520.00
2017-12-12T10:22:55.827Z,2532.00
2017-12-12T10:23:55.816Z,2652.00
2017-12-12T10:24:55.770Z,2568.00
2017-12-12T10:25:55.732Z,2656.00
2017-12-12T10:26:55.699Z,2836.00
2017-12-12T10:27:55.671Z,3184.00
2017-12-12T10:28:55.636Z,3476.00
2017-12-12T10:29:55.609Z,3704.00
2017-12-12T10:30:55.576Z,3668.00
2017-12-12T10:31:55.531Z,3272.00
2017-12-12T10:32:55.504Z,3104.00
2017-12-12T10:33:55.476Z,2964.00
2017-12-12T10:34:55.441Z,3120.00
2017-12-12T10:35:55.414Z,3248.00
2017-12-12T10:36:55.378Z,3112.00
2017-12-12T10:37:55.346Z,3108.00
2017-12-12T10:38:55.316Z,3412.00
2017-12-12T10:39:55.284Z,3496.00
2017-12-12T10:40:55.246Z,3300.00
2017-12-12T10:41:55.222Z,3116.00
2017-12-12T10:42:55.180Z,2900.00
2017-12-12T10:43:55.156Z,3284.00
2017-12-12T10:44:55.135Z,3104.00
2017-12-12T10:45:55.094Z,2904.00
2017-12-12T10:46:55.065Z,3068.00
2017-12-12T10:47:55.023Z,3064.00
2017-12-12T10:48:54.984Z,3112.00
2017-12-12T10:49:54.964Z,3428.00
2017-12-12T10:50:54.937Z,3888.00
2017-12-12T10:51:54.892Z,3644.00
2017-12-12T10:52:54.869Z,3704.00
2017-12-12T10:53:54.833Z,3332.00
2017-12-12T10:54:54.808Z,3280.00
2017-12-12T10:55:54.773Z,3224.00
2017-12-12T10:56:54.748Z,2892.00
2017-12-12T10:57:54.714Z,2864.00
2017-12-12T10:58:54.673Z,2716.00
2017-12-12T10:59:54.635Z,2836.00
2017-12-12T11:00:54.610Z,2832.00
2017-12-12T11:01:54.583Z,3096.00
2017-12-12T11:02:54.547Z,3232.00
2017-12-12T11:03:54.504Z,3444.00
2017-12-12T11:04:54.472Z,3140.00
2017-12-12T11:05:54.442Z,2804.00
2017-12-12T11:06:54.466Z,3032.00
2017-12-12T11:07:54.380Z,3164.00
2017-12-12T11:08:54.342Z,2740.00
2017-12-12T11:09:54.319Z,2756.00
2017-12-12T11:10:54.288Z,2572.00
2017-12-12T11:11:54.248Z,2332.00
2017-12-12T11:12:54.228Z,2328.00
2017-12-12T11:13:54.187Z,2316.00
2017-12-12T11:14:54.159Z,2404.00
2017-12-12T11:15:54.129Z,2688.00
2017-12-12T11:16:54.089Z,2804.00
2017-12-12T11:17:54.066Z,2708.00
2017-12-12T11:18:54.031Z,2784.00
2017-12-12T11:19:53.995Z,2696.00
2017-12-12T11:20:53.961Z,2688.00
2017-12-12T11:21:53.937Z,2528.00
2017-12-12T11:22:53.903Z,2536.00
2017-12-12T11:23:53.861Z,2668.00
2017-12-12T11:24:53.835Z,2876.00
2017-12-12T11:25:53.802Z,2740.00
2017-12-12T11:26:53.820Z,2908.00
2017-12-12T11:27:53.742Z,2928.00
2017-12-12T11:28:53.717Z,2744.00
2017-12-12T11:29:53.668Z,2760.00
2017-12-12T11:30:53.641Z,2900.00
2017-12-12T11:31:53.612Z,2748.00
2017-12-12T11:32:53.576Z,2788.00
2017-12-12T11:33:53.795Z,2636.00
2017-12-12T11:34:53.513Z,2736.00
2017-12-12T11:35:53.480Z,2600.00
2017-12-12T11:36:53.451Z,2764.00
2017-12-12T11:37:53.418Z,2576.00
2017-12-12T11:38:53.382Z,2400.00
2017-12-12T11:39:53.351Z,2408.00
2017-12-12T11:40:53.319Z,2592.00
2017-12-12T11:41:53.284Z,2824.00
2017-12-12T11:42:53.255Z,2944.00
2017-12-12T11:43:53.222Z,2756.00
2017-12-12T11:44:53.186Z,2696.00
2017-12-12T11:45:53.151Z,2948.00
2017-12-12T11:46:53.125Z,2996.00
2017-12-12T11:47:53.097Z,3312.00
2017-12-12T11:48:53.058Z,3184.00
2017-12-12T11:49:53.027Z,3400.00
2017-12-12T11:50:52.994Z,3352.00
2017-12-12T11:51:52.968Z,3400.00
2017-12-12T11:52:52.924Z,2984.00
2017-12-12T11:53:52.904Z,3044.00
2017-12-12T11:54:52.872Z,3092.00
2017-12-12T11:55:52.835Z,2972.00
2017-12-12T11:56:52.797Z,3256.00
2017-12-12T11:57:52.766Z,3540.00
2017-12-12T11:58:52.730Z,3468.00
2017-12-12T11:59:52.705Z,3536.00
2017-12-12T12:00:52.671Z,3684.00
2017-12-12T12:01:52.646Z,3864.00
2017-12-12T12:02:52.604Z,4000.00
2017-12-12T12:03:52.583Z,3500.00
2017-12-12T12:04:52.539Z,3624.00
2017-12-12T12:05:52.511Z,3052.00
2017-12-12T12:06:52.476Z,3148.00
2017-12-12T12:07:52.448Z,3516.00
2017-12-12T12:08:52.432Z,3288.00
2017-12-12T12:09:52.383Z,3524.00
2017-12-12T12:10:52.352Z,3012.00
2017-12-12T12:11:52.322Z,2880.00
2017-12-12T12:12:52.292Z,3088.00
2017-12-12T12:13:52.267Z,3040.00
2017-12-12T12:14:52.225Z,2952.00
2017-12-12T12:15:52.186Z,3144.00
2017-12-12T12:16:52.149Z,3152.00
2017-12-12T12:17:52.122Z,3424.00
2017-12-12T12:18:52.086Z,3296.00
2017-12-12T12:19:52.050Z,3116.00
2017-12-12T12:20:52.025Z,3404.00
2017-12-12T12:21:51.988Z,4072.00
2017-12-12T12:22:51.955Z,3808.00
2017-12-12T12:23:51.936Z,3220.00
2017-12-12T12:24:51.894Z,3392.00
2017-12-12T12:25:51.857Z,3600.00
2017-12-12T12:26:51.844Z,3696.00
2017-12-12T12:27:51.804Z,3672.00
2017-12-12T12:28:51.767Z,3328.00
2017-12-12T12:29:51.731Z,3824.00
2017-12-12T12:30:51.705Z,4060.00
2017-12-12T12:31:51.673Z,4304.00
2017-12-12T12:32:51.636Z,4168.00
2017-12-12T12:33:51.617Z,3548.00
2017-12-12T12:34:51.572Z,3368.00
2017-12-12T12:35:51.540Z,3392.00
2017-12-12T12:36:51.513Z,3516.00
2017-12-12T12:37:51.497Z,3468.00
2017-12-12T12:38:51.445Z,3560.00
2017-12-12T12:39:51.420Z,3484.00
2017-12-12T12:40:51.378Z,3856.00
2017-12-12T12:41:51.339Z,3620.00
2017-12-12T12:42:51.309Z,3240.00
2017-12-12T12:43:51.286Z,3340.00
2017-12-12T12:44:51.252Z,2996.00
2017-12-12T12:45:51.222Z,3424.00
2017-12-12T12:46:51.188Z,3616.00